sensor_id;sensor_type;location;lat;lon;timestamp;P1;durP1;ratioP1;P2;durP2;ratioP2
72590;SDS011;60625;51.212;5.952;2023-04-29T00:00:45;33.50;;;17.40;;
72590;SDS011;60625;51.212;5.952;2023-04-29T00:05:46;31.10;;;16.50;;
72590;SDS011;60625;51.212;5.952;2023-04-29T00:10:46;38.20;;;19.30;;
72590;SDS011;60625;51.212;5.952;2023-04-29T00:15:47;41.40;;;20.70;;
72590;SDS011;60625;51.212;5.952;2023-04-29T00:20:47;41.10;;;21.00;;
72590;SDS011;60625;51.212;5.952;2023-04-29T00:25:47;42.20;;;21.80;;
72590;SDS011;60625;51.212;5.952;2023-04-29T00:30:48;47.40;;;24.10;;
72590;SDS011;60625;51.212;5.952;2023-04-29T00:35:49;44.70;;;23.60;;
72590;SDS011;60625;51.212;5.952;2023-04-29T00:40:50;46.50;;;23.00;;
72590;SDS011;60625;51.212;5.952;2023-04-29T00:45:51;61.70;;;27.70;;
72590;SDS011;60625;51.212;5.952;2023-04-29T00:50:51;49.50;;;25.30;;
72590;SDS011;60625;51.212;5.952;2023-04-29T00:55:52;49.30;;;24.80;;
72590;SDS011;60625;51.212;5.952;2023-04-29T01:00:53;53.90;;;25.90;;
72590;SDS011;60625;51.212;5.952;2023-04-29T01:17:21;58.60;;;28.10;;
72590;SDS011;60625;51.212;5.952;2023-04-29T01:22:25;58.10;;;29.10;;
72590;SDS011;60625;51.212;5.952;2023-04-29T01:27:32;61.90;;;30.60;;
72590;SDS011;60625;51.212;5.952;2023-04-29T01:32:52;54.50;;;28.10;;
72590;SDS011;60625;51.212;5.952;2023-04-29T01:43:32;45.30;;;22.40;;
72590;SDS011;60625;51.212;5.952;2023-04-29T01:48:41;57.70;;;29.10;;
72590;SDS011;60625;51.212;5.952;2023-04-29T01:53:41;58.90;;;27.90;;
72590;SDS011;60625;51.212;5.952;2023-04-29T01:58:42;62.70;;;27.40;;
72590;SDS011;60625;51.212;5.952;2023-04-29T02:04:07;56.70;;;23.80;;
72590;SDS011;60625;51.212;5.952;2023-04-29T02:09:09;56.50;;;21.30;;
72590;SDS011;60625;51.212;5.952;2023-04-29T02:14:11;54.70;;;23.50;;
72590;SDS011;60625;51.212;5.952;2023-04-29T02:19:12;49.20;;;21.40;;
72590;SDS011;60625;51.212;5.952;2023-04-29T02:24:13;51.70;;;22.00;;
72590;SDS011;60625;51.212;5.952;2023-04-29T02:29:13;48.20;;;21.90;;
72590;SDS011;60625;51.212;5.952;2023-04-29T02:34:14;44.00;;;19.70;;
72590;SDS011;60625;51.212;5.952;2023-04-29T02:39:15;42.10;;;20.10;;
72590;SDS011;60625;51.212;5.952;2023-04-29T02:44:16;33.70;;;16.60;;
72590;SDS011;60625;51.212;5.952;2023-04-29T02:49:16;33.60;;;17.50;;
72590;SDS011;60625;51.212;5.952;2023-04-29T02:54:17;36.10;;;18.20;;
72590;SDS011;60625;51.212;5.952;2023-04-29T02:59:17;28.80;;;16.50;;
72590;SDS011;60625;51.212;5.952;2023-04-29T03:04:18;34.40;;;17.60;;
72590;SDS011;60625;51.212;5.952;2023-04-29T03:09:19;32.10;;;17.40;;
72590;SDS011;60625;51.212;5.952;2023-04-29T03:14:21;30.70;;;16.00;;
72590;SDS011;60625;51.212;5.952;2023-04-29T03:19:21;36.90;;;19.50;;
72590;SDS011;60625;51.212;5.952;2023-04-29T03:24:23;34.60;;;17.30;;
72590;SDS011;60625;51.212;5.952;2023-04-29T03:29:24;38.50;;;17.60;;
72590;SDS011;60625;51.212;5.952;2023-04-29T03:34:25;33.30;;;16.30;;
72590;SDS011;60625;51.212;5.952;2023-04-29T03:39:38;31.70;;;15.90;;
72590;SDS011;60625;51.212;5.952;2023-04-29T03:44:38;37.10;;;18.00;;
72590;SDS011;60625;51.212;5.952;2023-04-29T03:49:39;34.50;;;16.70;;
72590;SDS011;60625;51.212;5.952;2023-04-29T03:54:40;35.20;;;16.90;;
72590;SDS011;60625;51.212;5.952;2023-04-29T03:59:41;35.80;;;17.60;;
72590;SDS011;60625;51.212;5.952;2023-04-29T04:04:42;36.60;;;18.60;;
72590;SDS011;60625;51.212;5.952;2023-04-29T04:09:43;37.30;;;18.80;;
72590;SDS011;60625;51.212;5.952;2023-04-29T04:14:44;38.60;;;18.60;;
72590;SDS011;60625;51.212;5.952;2023-04-29T04:19:44;37.20;;;18.10;;
72590;SDS011;60625;51.212;5.952;2023-04-29T04:24:45;35.30;;;17.20;;
72590;SDS011;60625;51.212;5.952;2023-04-29T04:29:45;37.40;;;18.80;;
72590;SDS011;60625;51.212;5.952;2023-04-29T04:34:54;37.50;;;18.20;;
72590;SDS011;60625;51.212;5.952;2023-04-29T04:39:55;35.20;;;18.30;;
72590;SDS011;60625;51.212;5.952;2023-04-29T04:44:55;38.80;;;18.50;;
72590;SDS011;60625;51.212;5.952;2023-04-29T04:50:11;37.80;;;18.90;;
72590;SDS011;60625;51.212;5.952;2023-04-29T04:55:12;37.60;;;19.50;;
72590;SDS011;60625;51.212;5.952;2023-04-29T05:00:16;41.30;;;18.80;;
72590;SDS011;60625;51.212;5.952;2023-04-29T05:05:18;35.00;;;18.10;;
72590;SDS011;60625;51.212;5.952;2023-04-29T05:10:18;35.30;;;18.10;;
72590;SDS011;60625;51.212;5.952;2023-04-29T05:15:22;34.20;;;16.30;;
72590;SDS011;60625;51.212;5.952;2023-04-29T05:20:24;28.10;;;14.80;;
72590;SDS011;60625;51.212;5.952;2023-04-29T05:25:25;34.30;;;16.00;;
72590;SDS011;60625;51.212;5.952;2023-04-29T05:30:27;29.40;;;15.20;;
72590;SDS011;60625;51.212;5.952;2023-04-29T05:35:28;30.10;;;14.20;;
72590;SDS011;60625;51.212;5.952;2023-04-29T05:40:30;27.30;;;14.80;;
72590;SDS011;60625;51.212;5.952;2023-04-29T05:45:46;24.70;;;13.80;;
72590;SDS011;60625;51.212;5.952;2023-04-29T05:50:46;30.10;;;15.00;;
72590;SDS011;60625;51.212;5.952;2023-04-29T05:55:48;29.40;;;15.10;;
72590;SDS011;60625;51.212;5.952;2023-04-29T06:00:50;29.30;;;14.70;;
72590;SDS011;60625;51.212;5.952;2023-04-29T06:05:54;25.40;;;13.90;;
72590;SDS011;60625;51.212;5.952;2023-04-29T06:11:07;28.60;;;14.10;;
72590;SDS011;60625;51.212;5.952;2023-04-29T06:16:08;28.20;;;13.50;;
72590;SDS011;60625;51.212;5.952;2023-04-29T06:21:09;27.40;;;13.30;;
72590;SDS011;60625;51.212;5.952;2023-04-29T06:26:10;29.30;;;13.60;;
72590;SDS011;60625;51.212;5.952;2023-04-29T06:31:10;30.40;;;14.10;;
72590;SDS011;60625;51.212;5.952;2023-04-29T06:36:12;29.20;;;15.60;;
72590;SDS011;60625;51.212;5.952;2023-04-29T06:41:30;29.30;;;15.00;;
72590;SDS011;60625;51.212;5.952;2023-04-29T06:46:50;29.60;;;14.60;;
72590;SDS011;60625;51.212;5.952;2023-04-29T06:52:04;28.30;;;14.60;;
72590;SDS011;60625;51.212;5.952;2023-04-29T06:57:05;28.10;;;14.80;;
72590;SDS011;60625;51.212;5.952;2023-04-29T07:02:05;30.60;;;14.50;;
72590;SDS011;60625;51.212;5.952;2023-04-29T07:07:06;26.70;;;13.80;;
72590;SDS011;60625;51.212;5.952;2023-04-29T07:12:08;26.90;;;14.20;;
72590;SDS011;60625;51.212;5.952;2023-04-29T07:17:08;29.60;;;15.30;;
72590;SDS011;60625;51.212;5.952;2023-04-29T07:22:10;33.70;;;15.50;;
72590;SDS011;60625;51.212;5.952;2023-04-29T07:27:10;27.20;;;13.80;;
72590;SDS011;60625;51.212;5.952;2023-04-29T07:32:10;26.40;;;14.30;;
72590;SDS011;60625;51.212;5.952;2023-04-29T07:37:12;27.40;;;14.80;;
72590;SDS011;60625;51.212;5.952;2023-04-29T07:42:13;25.90;;;15.10;;
72590;SDS011;60625;51.212;5.952;2023-04-29T07:47:13;35.50;;;15.10;;
72590;SDS011;60625;51.212;5.952;2023-04-29T07:52:14;26.70;;;12.30;;
72590;SDS011;60625;51.212;5.952;2023-04-29T07:57:14;26.50;;;14.30;;
72590;SDS011;60625;51.212;5.952;2023-04-29T08:02:15;28.20;;;14.30;;
72590;SDS011;60625;51.212;5.952;2023-04-29T08:07:16;26.90;;;14.40;;
72590;SDS011;60625;51.212;5.952;2023-04-29T08:12:16;23.80;;;12.90;;
72590;SDS011;60625;51.212;5.952;2023-04-29T08:17:17;25.70;;;13.60;;
72590;SDS011;60625;51.212;5.952;2023-04-29T08:22:17;27.50;;;13.10;;
72590;SDS011;60625;51.212;5.952;2023-04-29T08:27:18;25.70;;;12.90;;
72590;SDS011;60625;51.212;5.952;2023-04-29T08:32:20;24.30;;;13.00;;
72590;SDS011;60625;51.212;5.952;2023-04-29T08:37:22;21.20;;;12.30;;
72590;SDS011;60625;51.212;5.952;2023-04-29T08:42:32;23.90;;;12.00;;
72590;SDS011;60625;51.212;5.952;2023-04-29T08:47:35;22.70;;;11.90;;
72590;SDS011;60625;51.212;5.952;2023-04-29T08:52:36;24.50;;;13.00;;
72590;SDS011;60625;51.212;5.952;2023-04-29T08:57:36;23.50;;;12.60;;
72590;SDS011;60625;51.212;5.952;2023-04-29T09:02:53;22.70;;;12.90;;
72590;SDS011;60625;51.212;5.952;2023-04-29T09:07:56;24.80;;;14.20;;
72590;SDS011;60625;51.212;5.952;2023-04-29T09:13:02;23.50;;;11.30;;
72590;SDS011;60625;51.212;5.952;2023-04-29T09:18:02;19.70;;;11.30;;
72590;SDS011;60625;51.212;5.952;2023-04-29T09:23:03;21.30;;;12.10;;
72590;SDS011;60625;51.212;5.952;2023-04-29T09:28:24;22.30;;;12.40;;
72590;SDS011;60625;51.212;5.952;2023-04-29T09:33:25;21.80;;;12.60;;
72590;SDS011;60625;51.212;5.952;2023-04-29T09:38:28;23.40;;;12.10;;
72590;SDS011;60625;51.212;5.952;2023-04-29T09:43:28;22.70;;;13.60;;
72590;SDS011;60625;51.212;5.952;2023-04-29T09:48:30;28.20;;;14.60;;
72590;SDS011;60625;51.212;5.952;2023-04-29T09:53:32;24.30;;;14.90;;
72590;SDS011;60625;51.212;5.952;2023-04-29T09:58:37;19.90;;;12.60;;
72590;SDS011;60625;51.212;5.952;2023-04-29T10:03:39;24.50;;;12.60;;
72590;SDS011;60625;51.212;5.952;2023-04-29T10:08:43;21.70;;;12.50;;
72590;SDS011;60625;51.212;5.952;2023-04-29T10:13:44;21.90;;;12.40;;
72590;SDS011;60625;51.212;5.952;2023-04-29T10:18:53;22.10;;;13.10;;
72590;SDS011;60625;51.212;5.952;2023-04-29T10:23:57;26.30;;;15.10;;
72590;SDS011;60625;51.212;5.952;2023-04-29T10:28:59;22.00;;;14.10;;
72590;SDS011;60625;51.212;5.952;2023-04-29T10:34:00;22.60;;;13.10;;
72590;SDS011;60625;51.212;5.952;2023-04-29T10:39:03;21.40;;;12.60;;
72590;SDS011;60625;51.212;5.952;2023-04-29T10:44:05;21.20;;;13.00;;
72590;SDS011;60625;51.212;5.952;2023-04-29T10:49:06;25.80;;;13.90;;
72590;SDS011;60625;51.212;5.952;2023-04-29T10:54:14;23.40;;;12.60;;
72590;SDS011;60625;51.212;5.952;2023-04-29T10:59:19;26.10;;;13.40;;
72590;SDS011;60625;51.212;5.952;2023-04-29T11:04:22;21.50;;;13.50;;
72590;SDS011;60625;51.212;5.952;2023-04-29T11:14:28;27.00;;;13.90;;
72590;SDS011;60625;51.212;5.952;2023-04-29T11:19:32;24.30;;;13.00;;
72590;SDS011;60625;51.212;5.952;2023-04-29T11:24:34;23.00;;;13.40;;
72590;SDS011;60625;51.212;5.952;2023-04-29T11:29:38;19.70;;;12.60;;
72590;SDS011;60625;51.212;5.952;2023-04-29T11:34:38;23.40;;;14.00;;
72590;SDS011;60625;51.212;5.952;2023-04-29T11:39:39;25.30;;;14.40;;
72590;SDS011;60625;51.212;5.952;2023-04-29T11:44:39;22.00;;;12.20;;
72590;SDS011;60625;51.212;5.952;2023-04-29T11:49:40;20.90;;;12.70;;
72590;SDS011;60625;51.212;5.952;2023-04-29T11:54:42;22.80;;;11.40;;
72590;SDS011;60625;51.212;5.952;2023-04-29T11:59:42;20.10;;;12.60;;
72590;SDS011;60625;51.212;5.952;2023-04-29T12:04:46;20.50;;;10.70;;
72590;SDS011;60625;51.212;5.952;2023-04-29T12:09:46;23.60;;;12.00;;
72590;SDS011;60625;51.212;5.952;2023-04-29T12:14:47;16.30;;;10.50;;
72590;SDS011;60625;51.212;5.952;2023-04-29T12:19:48;17.70;;;10.40;;
72590;SDS011;60625;51.212;5.952;2023-04-29T12:24:51;21.10;;;11.80;;
72590;SDS011;60625;51.212;5.952;2023-04-29T12:29:53;17.90;;;9.20;;
72590;SDS011;60625;51.212;5.952;2023-04-29T12:34:54;14.40;;;8.40;;
72590;SDS011;60625;51.212;5.952;2023-04-29T12:39:55;18.60;;;10.30;;
72590;SDS011;60625;51.212;5.952;2023-04-29T12:44:56;17.10;;;9.40;;
72590;SDS011;60625;51.212;5.952;2023-04-29T12:49:57;15.80;;;9.70;;
72590;SDS011;60625;51.212;5.952;2023-04-29T12:54:57;15.00;;;8.10;;
72590;SDS011;60625;51.212;5.952;2023-04-29T12:59:58;11.90;;;7.10;;
72590;SDS011;60625;51.212;5.952;2023-04-29T13:04:58;15.00;;;8.20;;
72590;SDS011;60625;51.212;5.952;2023-04-29T13:09:59;14.00;;;7.50;;
72590;SDS011;60625;51.212;5.952;2023-04-29T13:14:59;11.80;;;7.30;;
72590;SDS011;60625;51.212;5.952;2023-04-29T13:20:00;11.40;;;7.40;;
72590;SDS011;60625;51.212;5.952;2023-04-29T13:25:00;12.90;;;7.40;;
72590;SDS011;60625;51.212;5.952;2023-04-29T13:30:01;11.10;;;5.80;;
72590;SDS011;60625;51.212;5.952;2023-04-29T13:35:02;11.40;;;7.30;;
72590;SDS011;60625;51.212;5.952;2023-04-29T13:40:04;12.80;;;7.90;;
72590;SDS011;60625;51.212;5.952;2023-04-29T13:45:06;13.00;;;7.50;;
72590;SDS011;60625;51.212;5.952;2023-04-29T13:50:08;11.30;;;6.90;;
72590;SDS011;60625;51.212;5.952;2023-04-29T13:55:08;13.10;;;7.10;;
72590;SDS011;60625;51.212;5.952;2023-04-29T14:00:09;14.00;;;8.30;;
72590;SDS011;60625;51.212;5.952;2023-04-29T14:05:11;14.60;;;7.80;;
72590;SDS011;60625;51.212;5.952;2023-04-29T14:10:13;12.30;;;7.50;;
72590;SDS011;60625;51.212;5.952;2023-04-29T14:15:13;12.70;;;7.40;;
72590;SDS011;60625;51.212;5.952;2023-04-29T14:20:14;14.30;;;7.30;;
72590;SDS011;60625;51.212;5.952;2023-04-29T14:25:15;12.40;;;7.50;;
72590;SDS011;60625;51.212;5.952;2023-04-29T14:30:15;10.10;;;6.50;;
72590;SDS011;60625;51.212;5.952;2023-04-29T14:35:16;12.50;;;6.40;;
72590;SDS011;60625;51.212;5.952;2023-04-29T14:40:17;13.70;;;7.60;;
72590;SDS011;60625;51.212;5.952;2023-04-29T14:45:17;11.20;;;7.40;;
72590;SDS011;60625;51.212;5.952;2023-04-29T14:50:17;11.00;;;6.50;;
72590;SDS011;60625;51.212;5.952;2023-04-29T14:55:18;13.30;;;7.90;;
72590;SDS011;60625;51.212;5.952;2023-04-29T15:00:19;15.60;;;7.70;;
72590;SDS011;60625;51.212;5.952;2023-04-29T15:05:20;14.10;;;7.20;;
72590;SDS011;60625;51.212;5.952;2023-04-29T15:10:21;15.30;;;8.70;;
72590;SDS011;60625;51.212;5.952;2023-04-29T15:15:22;13.40;;;7.30;;
72590;SDS011;60625;51.212;5.952;2023-04-29T15:20:22;14.40;;;8.30;;
72590;SDS011;60625;51.212;5.952;2023-04-29T15:25:23;12.40;;;6.50;;
72590;SDS011;60625;51.212;5.952;2023-04-29T15:30:25;11.00;;;6.30;;
72590;SDS011;60625;51.212;5.952;2023-04-29T15:35:26;13.10;;;7.20;;
72590;SDS011;60625;51.212;5.952;2023-04-29T15:40:27;13.60;;;7.20;;
72590;SDS011;60625;51.212;5.952;2023-04-29T15:45:27;12.40;;;6.90;;
72590;SDS011;60625;51.212;5.952;2023-04-29T15:50:28;12.10;;;6.50;;
72590;SDS011;60625;51.212;5.952;2023-04-29T15:55:28;11.30;;;6.20;;
72590;SDS011;60625;51.212;5.952;2023-04-29T16:00:29;11.40;;;6.70;;
72590;SDS011;60625;51.212;5.952;2023-04-29T16:05:29;13.00;;;7.90;;
72590;SDS011;60625;51.212;5.952;2023-04-29T16:10:31;11.90;;;6.80;;
72590;SDS011;60625;51.212;5.952;2023-04-29T16:15:31;9.60;;;6.00;;
72590;SDS011;60625;51.212;5.952;2023-04-29T16:20:32;9.50;;;5.90;;
72590;SDS011;60625;51.212;5.952;2023-04-29T16:25:32;10.30;;;5.90;;
72590;SDS011;60625;51.212;5.952;2023-04-29T16:30:33;8.50;;;4.70;;
72590;SDS011;60625;51.212;5.952;2023-04-29T16:35:35;8.80;;;5.20;;
72590;SDS011;60625;51.212;5.952;2023-04-29T16:40:36;9.20;;;5.10;;
72590;SDS011;60625;51.212;5.952;2023-04-29T16:45:36;9.00;;;5.30;;
72590;SDS011;60625;51.212;5.952;2023-04-29T16:50:36;9.70;;;5.10;;
72590;SDS011;60625;51.212;5.952;2023-04-29T16:55:37;8.60;;;4.60;;
72590;SDS011;60625;51.212;5.952;2023-04-29T17:00:37;10.10;;;4.90;;
72590;SDS011;60625;51.212;5.952;2023-04-29T17:05:38;8.80;;;4.80;;
72590;SDS011;60625;51.212;5.952;2023-04-29T17:10:39;9.70;;;4.70;;
72590;SDS011;60625;51.212;5.952;2023-04-29T17:15:40;8.60;;;3.80;;
72590;SDS011;60625;51.212;5.952;2023-04-29T17:20:40;9.20;;;4.50;;
72590;SDS011;60625;51.212;5.952;2023-04-29T17:25:42;9.00;;;5.70;;
72590;SDS011;60625;51.212;5.952;2023-04-29T17:30:43;8.30;;;4.90;;
72590;SDS011;60625;51.212;5.952;2023-04-29T17:35:43;7.70;;;4.20;;
72590;SDS011;60625;51.212;5.952;2023-04-29T17:40:45;7.20;;;4.60;;
72590;SDS011;60625;51.212;5.952;2023-04-29T17:45:45;9.00;;;5.20;;
72590;SDS011;60625;51.212;5.952;2023-04-29T17:50:46;8.40;;;4.60;;
72590;SDS011;60625;51.212;5.952;2023-04-29T17:55:46;9.40;;;4.20;;
72590;SDS011;60625;51.212;5.952;2023-04-29T18:00:47;7.80;;;4.40;;
72590;SDS011;60625;51.212;5.952;2023-04-29T18:05:47;8.80;;;4.60;;
72590;SDS011;60625;51.212;5.952;2023-04-29T18:10:48;11.90;;;5.70;;
72590;SDS011;60625;51.212;5.952;2023-04-29T18:15:49;8.20;;;4.60;;
72590;SDS011;60625;51.212;5.952;2023-04-29T18:20:50;8.20;;;4.80;;
72590;SDS011;60625;51.212;5.952;2023-04-29T18:25:51;11.20;;;6.30;;
72590;SDS011;60625;51.212;5.952;2023-04-29T18:30:51;8.20;;;5.80;;
72590;SDS011;60625;51.212;5.952;2023-04-29T18:35:52;40.80;;;22.80;;
72590;SDS011;60625;51.212;5.952;2023-04-29T18:40:54;28.90;;;17.60;;
72590;SDS011;60625;51.212;5.952;2023-04-29T18:45:55;19.20;;;11.00;;
72590;SDS011;60625;51.212;5.952;2023-04-29T18:50:57;18.80;;;11.70;;
72590;SDS011;60625;51.212;5.952;2023-04-29T18:55:59;14.20;;;7.90;;
72590;SDS011;60625;51.212;5.952;2023-04-29T19:00:59;12.70;;;7.10;;
72590;SDS011;60625;51.212;5.952;2023-04-29T19:06:02;13.80;;;7.20;;
72590;SDS011;60625;51.212;5.952;2023-04-29T19:11:03;12.20;;;8.40;;
72590;SDS011;60625;51.212;5.952;2023-04-29T19:16:04;12.50;;;6.30;;
72590;SDS011;60625;51.212;5.952;2023-04-29T19:21:04;8.60;;;4.70;;
72590;SDS011;60625;51.212;5.952;2023-04-29T19:26:06;14.00;;;7.40;;
72590;SDS011;60625;51.212;5.952;2023-04-29T19:31:07;13.60;;;6.50;;
72590;SDS011;60625;51.212;5.952;2023-04-29T19:36:09;10.50;;;5.80;;
72590;SDS011;60625;51.212;5.952;2023-04-29T19:41:12;11.80;;;6.20;;
72590;SDS011;60625;51.212;5.952;2023-04-29T19:46:13;12.30;;;6.40;;
72590;SDS011;60625;51.212;5.952;2023-04-29T19:51:13;12.30;;;6.60;;
72590;SDS011;60625;51.212;5.952;2023-04-29T19:56:14;15.00;;;7.10;;
72590;SDS011;60625;51.212;5.952;2023-04-29T20:01:15;13.10;;;7.20;;
72590;SDS011;60625;51.212;5.952;2023-04-29T20:06:15;21.90;;;12.10;;
72590;SDS011;60625;51.212;5.952;2023-04-29T20:11:16;32.50;;;19.90;;
72590;SDS011;60625;51.212;5.952;2023-04-29T20:16:17;15.40;;;8.80;;
72590;SDS011;60625;51.212;5.952;2023-04-29T20:21:17;11.90;;;7.40;;
72590;SDS011;60625;51.212;5.952;2023-04-29T20:26:18;12.70;;;6.80;;
72590;SDS011;60625;51.212;5.952;2023-04-29T20:31:18;27.70;;;15.50;;
72590;SDS011;60625;51.212;5.952;2023-04-29T20:36:19;31.90;;;18.10;;
72590;SDS011;60625;51.212;5.952;2023-04-29T20:41:20;23.70;;;13.10;;
72590;SDS011;60625;51.212;5.952;2023-04-29T20:46:20;19.50;;;10.90;;
72590;SDS011;60625;51.212;5.952;2023-04-29T20:51:24;19.60;;;10.60;;
72590;SDS011;60625;51.212;5.952;2023-04-29T20:56:24;14.80;;;8.00;;
72590;SDS011;60625;51.212;5.952;2023-04-29T21:01:25;19.80;;;11.40;;
72590;SDS011;60625;51.212;5.952;2023-04-29T21:06:25;17.30;;;8.50;;
72590;SDS011;60625;51.212;5.952;2023-04-29T21:11:26;10.20;;;6.40;;
72590;SDS011;60625;51.212;5.952;2023-04-29T21:16:26;12.60;;;6.70;;
72590;SDS011;60625;51.212;5.952;2023-04-29T21:21:27;13.30;;;6.70;;
72590;SDS011;60625;51.212;5.952;2023-04-29T21:26:27;12.10;;;7.50;;
72590;SDS011;60625;51.212;5.952;2023-04-29T21:31:31;11.30;;;7.50;;
72590;SDS011;60625;51.212;5.952;2023-04-29T21:36:31;11.70;;;7.40;;
72590;SDS011;60625;51.212;5.952;2023-04-29T21:41:34;12.10;;;7.40;;
72590;SDS011;60625;51.212;5.952;2023-04-29T21:46:39;10.90;;;6.80;;
72590;SDS011;60625;51.212;5.952;2023-04-29T21:51:39;11.30;;;6.10;;
72590;SDS011;60625;51.212;5.952;2023-04-29T21:56:40;11.80;;;6.80;;
72590;SDS011;60625;51.212;5.952;2023-04-29T22:01:41;10.70;;;6.10;;
72590;SDS011;60625;51.212;5.952;2023-04-29T22:06:44;8.50;;;4.50;;
72590;SDS011;60625;51.212;5.952;2023-04-29T22:11:45;10.10;;;4.90;;
72590;SDS011;60625;51.212;5.952;2023-04-29T22:16:45;10.80;;;4.50;;
72590;SDS011;60625;51.212;5.952;2023-04-29T22:21:46;8.30;;;4.40;;
72590;SDS011;60625;51.212;5.952;2023-04-29T22:26:46;7.90;;;4.40;;
72590;SDS011;60625;51.212;5.952;2023-04-29T22:31:47;8.60;;;4.90;;
72590;SDS011;60625;51.212;5.952;2023-04-29T22:36:47;7.50;;;3.90;;
72590;SDS011;60625;51.212;5.952;2023-04-29T22:41:48;10.10;;;4.10;;
72590;SDS011;60625;51.212;5.952;2023-04-29T22:46:48;9.50;;;4.40;;
72590;SDS011;60625;51.212;5.952;2023-04-29T22:51:48;9.80;;;4.20;;
72590;SDS011;60625;51.212;5.952;2023-04-29T22:56:49;8.00;;;4.00;;
72590;SDS011;60625;51.212;5.952;2023-04-29T23:01:49;18.30;;;4.80;;
72590;SDS011;60625;51.212;5.952;2023-04-29T23:06:50;8.00;;;3.80;;
72590;SDS011;60625;51.212;5.952;2023-04-29T23:11:51;6.90;;;4.10;;
72590;SDS011;60625;51.212;5.952;2023-04-29T23:16:51;7.90;;;4.60;;
72590;SDS011;60625;51.212;5.952;2023-04-29T23:21:52;9.20;;;5.10;;
72590;SDS011;60625;51.212;5.952;2023-04-29T23:26:52;8.00;;;4.30;;
72590;SDS011;60625;51.212;5.952;2023-04-29T23:31:53;9.60;;;5.10;;
72590;SDS011;60625;51.212;5.952;2023-04-29T23:36:53;11.40;;;5.20;;
72590;SDS011;60625;51.212;5.952;2023-04-29T23:41:54;10.80;;;5.50;;
72590;SDS011;60625;51.212;5.952;2023-04-29T23:46:55;11.10;;;5.60;;
72590;SDS011;60625;51.212;5.952;2023-04-29T23:51:55;10.30;;;6.20;;
72590;SDS011;60625;51.212;5.952;2023-04-29T23:56:56;9.50;;;5.10;;
